sensor_id;sensor_type;location;lat;lon;timestamp;P1;durP1;ratioP1;P2;durP2;ratioP2
2406;SDS011;37709;53.480;9.688;2023-03-23T00:02:15;11.27;;;8.77;;
2406;SDS011;37709;53.480;9.688;2023-03-23T00:04:42;11.00;;;8.90;;
2406;SDS011;37709;53.480;9.688;2023-03-23T00:07:08;16.40;;;9.70;;
2406;SDS011;37709;53.480;9.688;2023-03-23T00:09:35;14.20;;;10.20;;
2406;SDS011;37709;53.480;9.688;2023-03-23T00:12:07;14.50;;;11.03;;
2406;SDS011;37709;53.480;9.688;2023-03-23T00:14:34;13.30;;;9.10;;
2406;SDS011;37709;53.480;9.688;2023-03-23T00:17:09;13.73;;;10.20;;
2406;SDS011;37709;53.480;9.688;2023-03-23T00:19:39;16.07;;;11.90;;
2406;SDS011;37709;53.480;9.688;2023-03-23T00:22:11;12.87;;;11.43;;
2406;SDS011;37709;53.480;9.688;2023-03-23T00:24:38;14.93;;;12.37;;
2406;SDS011;37709;53.480;9.688;2023-03-23T00:27:05;15.00;;;10.33;;
2406;SDS011;37709;53.480;9.688;2023-03-23T00:29:31;13.80;;;11.60;;
2406;SDS011;37709;53.480;9.688;2023-03-23T00:31:58;15.80;;;12.87;;
2406;SDS011;37709;53.480;9.688;2023-03-23T00:34:24;15.77;;;11.40;;
2406;SDS011;37709;53.480;9.688;2023-03-23T00:36:52;14.60;;;11.13;;
2406;SDS011;37709;53.480;9.688;2023-03-23T00:39:22;13.27;;;11.17;;
2406;SDS011;37709;53.480;9.688;2023-03-23T00:41:53;17.83;;;14.53;;
2406;SDS011;37709;53.480;9.688;2023-03-23T00:44:30;13.13;;;10.67;;
2406;SDS011;37709;53.480;9.688;2023-03-23T00:46:58;17.33;;;14.10;;
2406;SDS011;37709;53.480;9.688;2023-03-23T00:49:25;15.63;;;12.73;;
2406;SDS011;37709;53.480;9.688;2023-03-23T00:51:52;16.33;;;14.60;;
2406;SDS011;37709;53.480;9.688;2023-03-23T00:54:20;15.60;;;13.40;;
2406;SDS011;37709;53.480;9.688;2023-03-23T00:56:49;24.03;;;15.80;;
2406;SDS011;37709;53.480;9.688;2023-03-23T00:59:16;18.20;;;13.37;;
2406;SDS011;37709;53.480;9.688;2023-03-23T01:01:43;16.53;;;12.47;;
2406;SDS011;37709;53.480;9.688;2023-03-23T01:04:10;12.37;;;11.07;;
2406;SDS011;37709;53.480;9.688;2023-03-23T01:06:38;21.63;;;16.50;;
2406;SDS011;37709;53.480;9.688;2023-03-23T01:09:07;21.40;;;14.40;;
2406;SDS011;37709;53.480;9.688;2023-03-23T01:11:35;20.33;;;15.53;;
2406;SDS011;37709;53.480;9.688;2023-03-23T01:14:04;22.83;;;15.13;;
2406;SDS011;37709;53.480;9.688;2023-03-23T01:16:30;20.27;;;15.97;;
2406;SDS011;37709;53.480;9.688;2023-03-23T01:18:57;20.73;;;16.23;;
2406;SDS011;37709;53.480;9.688;2023-03-23T01:21:23;17.00;;;14.07;;
2406;SDS011;37709;53.480;9.688;2023-03-23T01:23:50;20.77;;;15.77;;
2406;SDS011;37709;53.480;9.688;2023-03-23T01:29:08;21.47;;;15.33;;
2406;SDS011;37709;53.480;9.688;2023-03-23T01:31:35;22.87;;;16.77;;
2406;SDS011;37709;53.480;9.688;2023-03-23T01:34:03;26.20;;;16.90;;
2406;SDS011;37709;53.480;9.688;2023-03-23T01:36:30;29.10;;;18.30;;
2406;SDS011;37709;53.480;9.688;2023-03-23T01:39:01;24.77;;;17.77;;
2406;SDS011;37709;53.480;9.688;2023-03-23T01:41:30;26.50;;;18.27;;
2406;SDS011;37709;53.480;9.688;2023-03-23T01:44:00;24.87;;;17.03;;
2406;SDS011;37709;53.480;9.688;2023-03-23T01:46:45;18.97;;;13.50;;
2406;SDS011;37709;53.480;9.688;2023-03-23T01:49:13;21.93;;;15.87;;
2406;SDS011;37709;53.480;9.688;2023-03-23T01:51:47;23.20;;;16.30;;
2406;SDS011;37709;53.480;9.688;2023-03-23T01:54:18;33.40;;;19.43;;
2406;SDS011;37709;53.480;9.688;2023-03-23T01:57:23;23.63;;;16.33;;
2406;SDS011;37709;53.480;9.688;2023-03-23T01:59:44;31.13;;;19.10;;
2406;SDS011;37709;53.480;9.688;2023-03-23T02:02:22;17.20;;;14.30;;
2406;SDS011;37709;53.480;9.688;2023-03-23T02:04:51;16.10;;;13.00;;
2406;SDS011;37709;53.480;9.688;2023-03-23T02:07:21;22.67;;;14.87;;
2406;SDS011;37709;53.480;9.688;2023-03-23T02:09:50;21.07;;;16.10;;
2406;SDS011;37709;53.480;9.688;2023-03-23T02:12:17;24.67;;;16.67;;
2406;SDS011;37709;53.480;9.688;2023-03-23T02:14:45;21.10;;;16.80;;
2406;SDS011;37709;53.480;9.688;2023-03-23T02:17:18;20.40;;;15.60;;
2406;SDS011;37709;53.480;9.688;2023-03-23T02:25:55;18.17;;;16.17;;
2406;SDS011;37709;53.480;9.688;2023-03-23T02:28:42;20.17;;;14.57;;
2406;SDS011;37709;53.480;9.688;2023-03-23T02:31:33;19.10;;;13.40;;
2406;SDS011;37709;53.480;9.688;2023-03-23T02:34:11;19.00;;;13.73;;
2406;SDS011;37709;53.480;9.688;2023-03-23T02:36:48;24.20;;;16.17;;
2406;SDS011;37709;53.480;9.688;2023-03-23T02:39:51;24.00;;;15.27;;
2406;SDS011;37709;53.480;9.688;2023-03-23T02:42:15;23.23;;;18.10;;
2406;SDS011;37709;53.480;9.688;2023-03-23T02:44:46;21.33;;;15.43;;
2406;SDS011;37709;53.480;9.688;2023-03-23T02:47:16;19.13;;;16.30;;
2406;SDS011;37709;53.480;9.688;2023-03-23T02:49:47;13.53;;;12.27;;
2406;SDS011;37709;53.480;9.688;2023-03-23T02:52:21;17.20;;;12.13;;
2406;SDS011;37709;53.480;9.688;2023-03-23T02:54:52;14.80;;;12.57;;
2406;SDS011;37709;53.480;9.688;2023-03-23T02:57:20;14.83;;;12.83;;
2406;SDS011;37709;53.480;9.688;2023-03-23T02:59:51;15.17;;;13.57;;
2406;SDS011;37709;53.480;9.688;2023-03-23T03:02:25;14.17;;;11.90;;
2406;SDS011;37709;53.480;9.688;2023-03-23T03:04:59;19.73;;;15.43;;
2406;SDS011;37709;53.480;9.688;2023-03-23T03:10:37;15.43;;;13.43;;
2406;SDS011;37709;53.480;9.688;2023-03-23T03:16:41;18.10;;;13.03;;
2406;SDS011;37709;53.480;9.688;2023-03-23T03:19:20;16.80;;;14.27;;
2406;SDS011;37709;53.480;9.688;2023-03-23T03:21:52;14.80;;;13.00;;
2406;SDS011;37709;53.480;9.688;2023-03-23T03:24:28;16.80;;;13.97;;
2406;SDS011;37709;53.480;9.688;2023-03-23T03:26:56;22.07;;;15.20;;
2406;SDS011;37709;53.480;9.688;2023-03-23T03:29:37;20.80;;;15.23;;
2406;SDS011;37709;53.480;9.688;2023-03-23T03:32:08;20.00;;;16.00;;
2406;SDS011;37709;53.480;9.688;2023-03-23T03:34:39;18.97;;;14.67;;
2406;SDS011;37709;53.480;9.688;2023-03-23T03:37:06;19.27;;;16.27;;
2406;SDS011;37709;53.480;9.688;2023-03-23T03:39:36;18.07;;;15.87;;
2406;SDS011;37709;53.480;9.688;2023-03-23T03:42:04;21.10;;;15.87;;
2406;SDS011;37709;53.480;9.688;2023-03-23T03:44:32;20.50;;;15.57;;
2406;SDS011;37709;53.480;9.688;2023-03-23T03:46:59;17.63;;;15.60;;
2406;SDS011;37709;53.480;9.688;2023-03-23T03:49:25;13.10;;;11.63;;
2406;SDS011;37709;53.480;9.688;2023-03-23T03:51:53;14.60;;;12.63;;
2406;SDS011;37709;53.480;9.688;2023-03-23T03:54:25;18.67;;;15.23;;
2406;SDS011;37709;53.480;9.688;2023-03-23T03:56:51;15.47;;;12.97;;
2406;SDS011;37709;53.480;9.688;2023-03-23T03:59:42;15.93;;;13.87;;
2406;SDS011;37709;53.480;9.688;2023-03-23T04:02:29;13.50;;;10.33;;
2406;SDS011;37709;53.480;9.688;2023-03-23T04:04:56;16.27;;;12.30;;
2406;SDS011;37709;53.480;9.688;2023-03-23T04:07:22;16.97;;;14.03;;
2406;SDS011;37709;53.480;9.688;2023-03-23T04:09:52;17.50;;;13.93;;
2406;SDS011;37709;53.480;9.688;2023-03-23T04:12:20;16.67;;;13.70;;
2406;SDS011;37709;53.480;9.688;2023-03-23T04:14:55;18.77;;;13.47;;
2406;SDS011;37709;53.480;9.688;2023-03-23T04:17:26;19.03;;;13.37;;
2406;SDS011;37709;53.480;9.688;2023-03-23T04:19:53;17.13;;;11.70;;
2406;SDS011;37709;53.480;9.688;2023-03-23T04:22:23;18.10;;;15.20;;
2406;SDS011;37709;53.480;9.688;2023-03-23T04:24:59;15.70;;;13.23;;
2406;SDS011;37709;53.480;9.688;2023-03-23T04:27:29;10.87;;;9.40;;
2406;SDS011;37709;53.480;9.688;2023-03-23T04:29:58;15.47;;;13.87;;
2406;SDS011;37709;53.480;9.688;2023-03-23T04:32:41;16.10;;;12.23;;
2406;SDS011;37709;53.480;9.688;2023-03-23T04:35:13;21.50;;;14.30;;
2406;SDS011;37709;53.480;9.688;2023-03-23T04:37:50;15.77;;;14.07;;
2406;SDS011;37709;53.480;9.688;2023-03-23T04:40:19;16.40;;;14.70;;
2406;SDS011;37709;53.480;9.688;2023-03-23T04:42:56;14.87;;;13.37;;
2406;SDS011;37709;53.480;9.688;2023-03-23T04:45:33;17.20;;;15.50;;
2406;SDS011;37709;53.480;9.688;2023-03-23T04:48:00;15.63;;;14.00;;
2406;SDS011;37709;53.480;9.688;2023-03-23T04:50:36;17.07;;;15.37;;
2406;SDS011;37709;53.480;9.688;2023-03-23T04:53:14;18.17;;;16.20;;
2406;SDS011;37709;53.480;9.688;2023-03-23T04:55:41;15.50;;;12.53;;
2406;SDS011;37709;53.480;9.688;2023-03-23T04:58:11;18.33;;;14.00;;
2406;SDS011;37709;53.480;9.688;2023-03-23T05:01:02;16.20;;;14.33;;
2406;SDS011;37709;53.480;9.688;2023-03-23T05:03:32;14.83;;;12.67;;
2406;SDS011;37709;53.480;9.688;2023-03-23T05:06:00;17.63;;;14.20;;
2406;SDS011;37709;53.480;9.688;2023-03-23T05:08:28;16.20;;;12.57;;
2406;SDS011;37709;53.480;9.688;2023-03-23T05:10:58;11.57;;;7.90;;
2406;SDS011;37709;53.480;9.688;2023-03-23T05:13:31;16.40;;;13.50;;
2406;SDS011;37709;53.480;9.688;2023-03-23T05:16:02;13.70;;;12.30;;
2406;SDS011;37709;53.480;9.688;2023-03-23T05:18:30;17.40;;;14.40;;
2406;SDS011;37709;53.480;9.688;2023-03-23T05:21:01;13.40;;;12.03;;
2406;SDS011;37709;53.480;9.688;2023-03-23T05:23:33;12.83;;;11.67;;
2406;SDS011;37709;53.480;9.688;2023-03-23T05:26:09;15.27;;;13.67;;
2406;SDS011;37709;53.480;9.688;2023-03-23T05:28:36;14.53;;;13.00;;
2406;SDS011;37709;53.480;9.688;2023-03-23T05:31:18;15.30;;;12.77;;
2406;SDS011;37709;53.480;9.688;2023-03-23T05:33:46;16.67;;;13.03;;
2406;SDS011;37709;53.480;9.688;2023-03-23T05:36:16;12.93;;;11.63;;
2406;SDS011;37709;53.480;9.688;2023-03-23T05:39:00;11.73;;;9.90;;
2406;SDS011;37709;53.480;9.688;2023-03-23T05:41:42;13.87;;;12.37;;
2406;SDS011;37709;53.480;9.688;2023-03-23T05:44:08;12.50;;;11.20;;
2406;SDS011;37709;53.480;9.688;2023-03-23T05:46:45;12.33;;;11.13;;
2406;SDS011;37709;53.480;9.688;2023-03-23T05:49:13;14.73;;;11.40;;
2406;SDS011;37709;53.480;9.688;2023-03-23T05:51:43;11.27;;;9.93;;
2406;SDS011;37709;53.480;9.688;2023-03-23T05:54:11;11.30;;;10.20;;
2406;SDS011;37709;53.480;9.688;2023-03-23T05:56:40;9.20;;;8.33;;
2406;SDS011;37709;53.480;9.688;2023-03-23T05:59:22;11.23;;;9.90;;
2406;SDS011;37709;53.480;9.688;2023-03-23T06:01:52;10.23;;;9.23;;
2406;SDS011;37709;53.480;9.688;2023-03-23T06:04:22;11.20;;;10.07;;
2406;SDS011;37709;53.480;9.688;2023-03-23T06:07:09;11.80;;;9.37;;
2406;SDS011;37709;53.480;9.688;2023-03-23T06:09:45;10.67;;;8.17;;
2406;SDS011;37709;53.480;9.688;2023-03-23T06:12:23;7.50;;;6.80;;
2406;SDS011;37709;53.480;9.688;2023-03-23T06:15:25;11.47;;;8.97;;
2406;SDS011;37709;53.480;9.688;2023-03-23T06:18:17;9.77;;;8.50;;
2406;SDS011;37709;53.480;9.688;2023-03-23T06:21:05;8.90;;;7.47;;
2406;SDS011;37709;53.480;9.688;2023-03-23T06:23:50;6.90;;;6.20;;
2406;SDS011;37709;53.480;9.688;2023-03-23T06:26:18;8.77;;;7.43;;
2406;SDS011;37709;53.480;9.688;2023-03-23T06:28:50;7.40;;;6.70;;
2406;SDS011;37709;53.480;9.688;2023-03-23T06:31:17;8.17;;;7.07;;
2406;SDS011;37709;53.480;9.688;2023-03-23T06:33:48;6.93;;;6.03;;
2406;SDS011;37709;53.480;9.688;2023-03-23T06:36:25;9.70;;;6.17;;
2406;SDS011;37709;53.480;9.688;2023-03-23T06:39:03;6.37;;;5.67;;
2406;SDS011;37709;53.480;9.688;2023-03-23T06:41:51;7.13;;;6.33;;
2406;SDS011;37709;53.480;9.688;2023-03-23T06:44:17;5.47;;;4.63;;
2406;SDS011;37709;53.480;9.688;2023-03-23T06:46:44;5.13;;;4.60;;
2406;SDS011;37709;53.480;9.688;2023-03-23T06:49:20;5.80;;;4.73;;
2406;SDS011;37709;53.480;9.688;2023-03-23T06:51:58;4.97;;;4.53;;
2406;SDS011;37709;53.480;9.688;2023-03-23T06:54:26;5.30;;;4.50;;
2406;SDS011;37709;53.480;9.688;2023-03-23T06:56:53;4.63;;;4.17;;
2406;SDS011;37709;53.480;9.688;2023-03-23T06:59:20;4.80;;;4.40;;
2406;SDS011;37709;53.480;9.688;2023-03-23T07:01:46;3.93;;;3.63;;
2406;SDS011;37709;53.480;9.688;2023-03-23T07:04:14;4.60;;;4.20;;
2406;SDS011;37709;53.480;9.688;2023-03-23T07:07:02;6.17;;;3.87;;
2406;SDS011;37709;53.480;9.688;2023-03-23T07:09:32;4.20;;;3.70;;
2406;SDS011;37709;53.480;9.688;2023-03-23T07:11:58;3.57;;;3.23;;
2406;SDS011;37709;53.480;9.688;2023-03-23T07:14:31;4.63;;;3.73;;
2406;SDS011;37709;53.480;9.688;2023-03-23T07:16:58;4.73;;;3.20;;
2406;SDS011;37709;53.480;9.688;2023-03-23T07:19:25;4.67;;;3.20;;
2406;SDS011;37709;53.480;9.688;2023-03-23T07:21:52;4.33;;;3.03;;
2406;SDS011;37709;53.480;9.688;2023-03-23T07:24:21;4.27;;;3.60;;
2406;SDS011;37709;53.480;9.688;2023-03-23T07:26:59;3.50;;;2.87;;
2406;SDS011;37709;53.480;9.688;2023-03-23T07:29:27;4.03;;;3.63;;
2406;SDS011;37709;53.480;9.688;2023-03-23T07:32:03;3.63;;;3.33;;
2406;SDS011;37709;53.480;9.688;2023-03-23T07:34:30;4.40;;;3.03;;
2406;SDS011;37709;53.480;9.688;2023-03-23T07:37:09;4.23;;;3.73;;
2406;SDS011;37709;53.480;9.688;2023-03-23T07:39:36;3.83;;;3.53;;
2406;SDS011;37709;53.480;9.688;2023-03-23T07:42:03;3.67;;;3.37;;
2406;SDS011;37709;53.480;9.688;2023-03-23T07:44:40;5.13;;;3.97;;
2406;SDS011;37709;53.480;9.688;2023-03-23T07:47:09;5.00;;;4.60;;
2406;SDS011;37709;53.480;9.688;2023-03-23T07:49:36;4.10;;;3.70;;
2406;SDS011;37709;53.480;9.688;2023-03-23T07:52:38;3.40;;;3.10;;
2406;SDS011;37709;53.480;9.688;2023-03-23T07:55:05;4.00;;;3.70;;
2406;SDS011;37709;53.480;9.688;2023-03-23T07:57:54;4.97;;;4.57;;
2406;SDS011;37709;53.480;9.688;2023-03-23T08:00:21;6.00;;;5.40;;
2406;SDS011;37709;53.480;9.688;2023-03-23T08:02:53;5.00;;;4.60;;
2406;SDS011;37709;53.480;9.688;2023-03-23T08:05:59;5.87;;;5.37;;
2406;SDS011;37709;53.480;9.688;2023-03-23T08:08:43;6.60;;;6.10;;
2406;SDS011;37709;53.480;9.688;2023-03-23T08:11:43;5.33;;;4.77;;
2406;SDS011;37709;53.480;9.688;2023-03-23T08:14:35;5.37;;;4.97;;
2406;SDS011;37709;53.480;9.688;2023-03-23T08:17:18;6.40;;;5.80;;
2406;SDS011;37709;53.480;9.688;2023-03-23T08:20:05;14.83;;;2.50;;
2406;SDS011;37709;53.480;9.688;2023-03-23T08:22:57;3.30;;;2.40;;
2406;SDS011;37709;53.480;9.688;2023-03-23T08:25:47;4.50;;;3.30;;
2406;SDS011;37709;53.480;9.688;2023-03-23T08:28:23;4.80;;;4.00;;
2406;SDS011;37709;53.480;9.688;2023-03-23T08:31:25;4.93;;;4.27;;
2406;SDS011;37709;53.480;9.688;2023-03-23T08:34:04;4.23;;;3.83;;
2406;SDS011;37709;53.480;9.688;2023-03-23T08:36:42;4.60;;;3.43;;
2406;SDS011;37709;53.480;9.688;2023-03-23T08:39:12;4.17;;;3.57;;
2406;SDS011;37709;53.480;9.688;2023-03-23T08:42:00;5.23;;;3.20;;
2406;SDS011;37709;53.480;9.688;2023-03-23T08:44:49;4.13;;;3.00;;
2406;SDS011;37709;53.480;9.688;2023-03-23T08:47:27;7.30;;;3.20;;
2406;SDS011;37709;53.480;9.688;2023-03-23T08:50:13;3.00;;;1.80;;
2406;SDS011;37709;53.480;9.688;2023-03-23T08:52:56;3.40;;;2.40;;
2406;SDS011;37709;53.480;9.688;2023-03-23T08:55:42;4.30;;;2.40;;
2406;SDS011;37709;53.480;9.688;2023-03-23T08:58:45;4.10;;;2.20;;
2406;SDS011;37709;53.480;9.688;2023-03-23T09:01:32;4.17;;;2.10;;
2406;SDS011;37709;53.480;9.688;2023-03-23T09:04:13;3.97;;;1.90;;
2406;SDS011;37709;53.480;9.688;2023-03-23T09:06:55;3.70;;;1.60;;
2406;SDS011;37709;53.480;9.688;2023-03-23T09:09:23;5.90;;;2.40;;
2406;SDS011;37709;53.480;9.688;2023-03-23T09:11:49;7.07;;;2.30;;
2406;SDS011;37709;53.480;9.688;2023-03-23T09:14:16;4.20;;;1.80;;
2406;SDS011;37709;53.480;9.688;2023-03-23T09:16:42;3.37;;;1.70;;
2406;SDS011;37709;53.480;9.688;2023-03-23T09:19:08;2.73;;;1.57;;
2406;SDS011;37709;53.480;9.688;2023-03-23T09:21:35;5.10;;;1.70;;
2406;SDS011;37709;53.480;9.688;2023-03-23T09:24:02;5.00;;;1.40;;
2406;SDS011;37709;53.480;9.688;2023-03-23T09:26:28;3.80;;;1.70;;
2406;SDS011;37709;53.480;9.688;2023-03-23T09:28:54;3.33;;;1.57;;
2406;SDS011;37709;53.480;9.688;2023-03-23T09:31:22;7.13;;;2.23;;
2406;SDS011;37709;53.480;9.688;2023-03-23T09:33:52;4.17;;;1.40;;
2406;SDS011;37709;53.480;9.688;2023-03-23T09:36:21;4.40;;;1.83;;
2406;SDS011;37709;53.480;9.688;2023-03-23T09:38:48;3.57;;;1.40;;
2406;SDS011;37709;53.480;9.688;2023-03-23T09:43:54;9.23;;;2.17;;
2406;SDS011;37709;53.480;9.688;2023-03-23T09:46:42;6.23;;;2.37;;
2406;SDS011;37709;53.480;9.688;2023-03-23T09:49:21;5.40;;;1.53;;
2406;SDS011;37709;53.480;9.688;2023-03-23T09:52:12;4.13;;;1.70;;
2406;SDS011;37709;53.480;9.688;2023-03-23T09:54:45;8.67;;;2.20;;
2406;SDS011;37709;53.480;9.688;2023-03-23T09:57:16;5.60;;;2.17;;
2406;SDS011;37709;53.480;9.688;2023-03-23T09:59:52;3.83;;;1.60;;
2406;SDS011;37709;53.480;9.688;2023-03-23T10:05:25;5.93;;;1.50;;
2406;SDS011;37709;53.480;9.688;2023-03-23T10:08:01;6.23;;;2.60;;
2406;SDS011;37709;53.480;9.688;2023-03-23T10:10:41;4.77;;;1.80;;
2406;SDS011;37709;53.480;9.688;2023-03-23T10:16:26;4.10;;;1.80;;
2406;SDS011;37709;53.480;9.688;2023-03-23T10:19:09;6.73;;;2.23;;
2406;SDS011;37709;53.480;9.688;2023-03-23T10:21:59;6.67;;;1.83;;
2406;SDS011;37709;53.480;9.688;2023-03-23T10:30:38;4.27;;;2.37;;
2406;SDS011;37709;53.480;9.688;2023-03-23T10:35:53;7.00;;;2.60;;
2406;SDS011;37709;53.480;9.688;2023-03-23T10:38:57;4.60;;;1.87;;
2406;SDS011;37709;53.480;9.688;2023-03-23T10:41:28;6.70;;;2.17;;
2406;SDS011;37709;53.480;9.688;2023-03-23T10:43:56;5.10;;;1.70;;
2406;SDS011;37709;53.480;9.688;2023-03-23T10:49:04;10.00;;;2.70;;
2406;SDS011;37709;53.480;9.688;2023-03-23T10:51:35;4.23;;;1.60;;
2406;SDS011;37709;53.480;9.688;2023-03-23T10:54:06;5.57;;;2.23;;
2406;SDS011;37709;53.480;9.688;2023-03-23T10:56:40;4.23;;;1.60;;
2406;SDS011;37709;53.480;9.688;2023-03-23T10:59:13;7.00;;;2.87;;
2406;SDS011;37709;53.480;9.688;2023-03-23T11:01:47;6.33;;;2.60;;
2406;SDS011;37709;53.480;9.688;2023-03-23T11:04:16;4.47;;;1.70;;
2406;SDS011;37709;53.480;9.688;2023-03-23T11:06:45;4.97;;;2.17;;
2406;SDS011;37709;53.480;9.688;2023-03-23T11:09:16;7.27;;;2.13;;
2406;SDS011;37709;53.480;9.688;2023-03-23T11:11:51;6.50;;;2.70;;
2406;SDS011;37709;53.480;9.688;2023-03-23T11:14:30;7.93;;;2.60;;
2406;SDS011;37709;53.480;9.688;2023-03-23T11:16:59;8.20;;;2.50;;
2406;SDS011;37709;53.480;9.688;2023-03-23T11:19:32;6.13;;;2.60;;
2406;SDS011;37709;53.480;9.688;2023-03-23T11:24:31;5.53;;;2.27;;
2406;SDS011;37709;53.480;9.688;2023-03-23T11:26:59;10.97;;;2.90;;
2406;SDS011;37709;53.480;9.688;2023-03-23T11:29:27;5.80;;;2.80;;
2406;SDS011;37709;53.480;9.688;2023-03-23T11:34:29;4.47;;;2.43;;
2406;SDS011;37709;53.480;9.688;2023-03-23T11:37:06;3.70;;;2.10;;
2406;SDS011;37709;53.480;9.688;2023-03-23T11:39:49;5.40;;;3.37;;
2406;SDS011;37709;53.480;9.688;2023-03-23T11:47:51;5.70;;;2.53;;
2406;SDS011;37709;53.480;9.688;2023-03-23T11:51:15;5.00;;;2.60;;
2406;SDS011;37709;53.480;9.688;2023-03-23T11:53:20;3.87;;;2.47;;
2406;SDS011;37709;53.480;9.688;2023-03-23T11:56:11;7.03;;;3.43;;
2406;SDS011;37709;53.480;9.688;2023-03-23T11:58:43;4.90;;;2.50;;
2406;SDS011;37709;53.480;9.688;2023-03-23T12:01:12;4.83;;;3.00;;
2406;SDS011;37709;53.480;9.688;2023-03-23T12:03:51;9.37;;;2.90;;
2406;SDS011;37709;53.480;9.688;2023-03-23T12:06:37;3.83;;;2.40;;
2406;SDS011;37709;53.480;9.688;2023-03-23T12:12:33;8.03;;;2.80;;
2406;SDS011;37709;53.480;9.688;2023-03-23T12:17:58;5.27;;;3.70;;
2406;SDS011;37709;53.480;9.688;2023-03-23T12:21:11;5.57;;;3.30;;
2406;SDS011;37709;53.480;9.688;2023-03-23T12:24:01;10.27;;;5.40;;
2406;SDS011;37709;53.480;9.688;2023-03-23T12:29:47;5.00;;;3.57;;
2406;SDS011;37709;53.480;9.688;2023-03-23T12:32:34;9.90;;;4.77;;
2406;SDS011;37709;53.480;9.688;2023-03-23T12:35:14;5.80;;;3.33;;
2406;SDS011;37709;53.480;9.688;2023-03-23T12:37:50;11.60;;;3.60;;
2406;SDS011;37709;53.480;9.688;2023-03-23T12:40:41;7.57;;;3.57;;
2406;SDS011;37709;53.480;9.688;2023-03-23T12:43:28;10.03;;;3.83;;
2406;SDS011;37709;53.480;9.688;2023-03-23T12:48:51;8.83;;;3.23;;
2406;SDS011;37709;53.480;9.688;2023-03-23T12:51:27;6.87;;;3.70;;
2406;SDS011;37709;53.480;9.688;2023-03-23T12:54:07;8.97;;;3.30;;
2406;SDS011;37709;53.480;9.688;2023-03-23T12:56:42;5.73;;;2.77;;
2406;SDS011;37709;53.480;9.688;2023-03-23T12:59:32;7.30;;;3.90;;
2406;SDS011;37709;53.480;9.688;2023-03-23T13:02:14;4.63;;;2.67;;
2406;SDS011;37709;53.480;9.688;2023-03-23T13:05:25;6.73;;;3.03;;
2406;SDS011;37709;53.480;9.688;2023-03-23T13:07:58;4.47;;;2.40;;
2406;SDS011;37709;53.480;9.688;2023-03-23T13:10:32;3.80;;;2.00;;
2406;SDS011;37709;53.480;9.688;2023-03-23T13:13:06;7.73;;;2.80;;
2406;SDS011;37709;53.480;9.688;2023-03-23T13:15:44;3.13;;;1.87;;
2406;SDS011;37709;53.480;9.688;2023-03-23T13:18:37;4.27;;;2.13;;
2406;SDS011;37709;53.480;9.688;2023-03-23T13:23:47;3.53;;;2.20;;
2406;SDS011;37709;53.480;9.688;2023-03-23T13:26:18;3.70;;;2.10;;
2406;SDS011;37709;53.480;9.688;2023-03-23T13:31:31;2.87;;;2.13;;
2406;SDS011;37709;53.480;9.688;2023-03-23T13:34:10;3.13;;;1.90;;
2406;SDS011;37709;53.480;9.688;2023-03-23T13:36:43;2.70;;;1.60;;
2406;SDS011;37709;53.480;9.688;2023-03-23T13:39:20;2.50;;;1.53;;
2406;SDS011;37709;53.480;9.688;2023-03-23T13:44:41;4.50;;;1.80;;
2406;SDS011;37709;53.480;9.688;2023-03-23T13:52:51;13.03;;;2.00;;
2406;SDS011;37709;53.480;9.688;2023-03-23T13:55:22;4.77;;;1.30;;
2406;SDS011;37709;53.480;9.688;2023-03-23T13:58:21;4.27;;;1.70;;
2406;SDS011;37709;53.480;9.688;2023-03-23T14:01:00;5.83;;;1.20;;
2406;SDS011;37709;53.480;9.688;2023-03-23T14:03:39;5.30;;;1.53;;
2406;SDS011;37709;53.480;9.688;2023-03-23T14:06:14;3.30;;;2.33;;
2406;SDS011;37709;53.480;9.688;2023-03-23T14:09:10;2.33;;;1.60;;
2406;SDS011;37709;53.480;9.688;2023-03-23T14:11:55;3.23;;;1.87;;
2406;SDS011;37709;53.480;9.688;2023-03-23T14:14:41;4.70;;;1.60;;
2406;SDS011;37709;53.480;9.688;2023-03-23T14:17:14;2.97;;;1.57;;
2406;SDS011;37709;53.480;9.688;2023-03-23T14:19:44;2.43;;;1.37;;
2406;SDS011;37709;53.480;9.688;2023-03-23T14:22:19;2.83;;;1.57;;
2406;SDS011;37709;53.480;9.688;2023-03-23T14:24:51;3.67;;;1.47;;
2406;SDS011;37709;53.480;9.688;2023-03-23T14:27:19;7.40;;;2.10;;
2406;SDS011;37709;53.480;9.688;2023-03-23T14:30:06;9.60;;;1.80;;
2406;SDS011;37709;53.480;9.688;2023-03-23T14:32:43;3.97;;;1.60;;
2406;SDS011;37709;53.480;9.688;2023-03-23T14:35:19;3.83;;;1.63;;
2406;SDS011;37709;53.480;9.688;2023-03-23T14:37:47;2.50;;;1.30;;
2406;SDS011;37709;53.480;9.688;2023-03-23T14:40:15;2.90;;;1.50;;
2406;SDS011;37709;53.480;9.688;2023-03-23T14:42:43;5.53;;;1.50;;
2406;SDS011;37709;53.480;9.688;2023-03-23T14:45:12;2.90;;;1.70;;
2406;SDS011;37709;53.480;9.688;2023-03-23T14:47:45;2.60;;;1.47;;
2406;SDS011;37709;53.480;9.688;2023-03-23T14:52:49;4.40;;;1.40;;
2406;SDS011;37709;53.480;9.688;2023-03-23T14:55:17;4.60;;;1.27;;
2406;SDS011;37709;53.480;9.688;2023-03-23T14:57:47;3.50;;;1.60;;
2406;SDS011;37709;53.480;9.688;2023-03-23T15:00:23;2.77;;;1.43;;
2406;SDS011;37709;53.480;9.688;2023-03-23T15:02:56;2.93;;;1.63;;
2406;SDS011;37709;53.480;9.688;2023-03-23T15:07:59;5.37;;;1.63;;
2406;SDS011;37709;53.480;9.688;2023-03-23T15:10:53;4.17;;;2.13;;
2406;SDS011;37709;53.480;9.688;2023-03-23T15:13:23;3.70;;;1.90;;
2406;SDS011;37709;53.480;9.688;2023-03-23T15:15:49;3.30;;;1.80;;
2406;SDS011;37709;53.480;9.688;2023-03-23T15:18:22;2.97;;;1.73;;
2406;SDS011;37709;53.480;9.688;2023-03-23T15:20:55;2.33;;;1.57;;
2406;SDS011;37709;53.480;9.688;2023-03-23T15:23:26;3.17;;;2.07;;
2406;SDS011;37709;53.480;9.688;2023-03-23T15:25:55;3.47;;;1.73;;
2406;SDS011;37709;53.480;9.688;2023-03-23T15:28:32;3.70;;;1.53;;
2406;SDS011;37709;53.480;9.688;2023-03-23T15:31:05;2.77;;;1.10;;
2406;SDS011;37709;53.480;9.688;2023-03-23T15:33:35;4.77;;;1.60;;
2406;SDS011;37709;53.480;9.688;2023-03-23T15:36:14;4.33;;;1.77;;
2406;SDS011;37709;53.480;9.688;2023-03-23T15:38:43;3.70;;;1.37;;
2406;SDS011;37709;53.480;9.688;2023-03-23T15:41:24;2.33;;;1.70;;
2406;SDS011;37709;53.480;9.688;2023-03-23T15:43:56;3.87;;;1.50;;
2406;SDS011;37709;53.480;9.688;2023-03-23T15:46:25;3.40;;;1.60;;
2406;SDS011;37709;53.480;9.688;2023-03-23T15:51:34;4.73;;;1.50;;
2406;SDS011;37709;53.480;9.688;2023-03-23T15:54:00;3.87;;;1.90;;
2406;SDS011;37709;53.480;9.688;2023-03-23T15:56:28;4.20;;;1.30;;
2406;SDS011;37709;53.480;9.688;2023-03-23T15:58:56;3.40;;;2.00;;
2406;SDS011;37709;53.480;9.688;2023-03-23T16:01:26;3.90;;;1.57;;
2406;SDS011;37709;53.480;9.688;2023-03-23T16:06:25;2.40;;;1.53;;
2406;SDS011;37709;53.480;9.688;2023-03-23T16:08:54;6.00;;;2.30;;
2406;SDS011;37709;53.480;9.688;2023-03-23T16:11:22;2.27;;;1.30;;
2406;SDS011;37709;53.480;9.688;2023-03-23T16:13:51;3.10;;;1.80;;
2406;SDS011;37709;53.480;9.688;2023-03-23T16:16:23;5.03;;;1.60;;
2406;SDS011;37709;53.480;9.688;2023-03-23T16:18:53;5.03;;;2.00;;
2406;SDS011;37709;53.480;9.688;2023-03-23T16:21:20;3.63;;;1.60;;
2406;SDS011;37709;53.480;9.688;2023-03-23T16:23:49;3.33;;;1.97;;
2406;SDS011;37709;53.480;9.688;2023-03-23T16:26:16;2.50;;;1.23;;
2406;SDS011;37709;53.480;9.688;2023-03-23T16:28:44;2.63;;;1.30;;
2406;SDS011;37709;53.480;9.688;2023-03-23T16:31:12;2.33;;;1.40;;
2406;SDS011;37709;53.480;9.688;2023-03-23T16:33:39;4.57;;;1.80;;
2406;SDS011;37709;53.480;9.688;2023-03-23T16:36:09;3.27;;;1.40;;
2406;SDS011;37709;53.480;9.688;2023-03-23T16:38:38;2.57;;;1.40;;
2406;SDS011;37709;53.480;9.688;2023-03-23T16:41:16;4.00;;;1.40;;
2406;SDS011;37709;53.480;9.688;2023-03-23T16:43:43;2.83;;;1.33;;
2406;SDS011;37709;53.480;9.688;2023-03-23T16:46:11;4.20;;;2.03;;
2406;SDS011;37709;53.480;9.688;2023-03-23T16:48:39;4.63;;;2.10;;
2406;SDS011;37709;53.480;9.688;2023-03-23T16:51:07;4.27;;;1.50;;
2406;SDS011;37709;53.480;9.688;2023-03-23T16:53:35;3.30;;;1.70;;
2406;SDS011;37709;53.480;9.688;2023-03-23T16:56:03;6.77;;;2.97;;